createdAt,value
2024-05-09T00:00:40.043Z,23
2024-05-09T00:01:37.883Z,26
2024-05-09T00:02:37.898Z,24
2024-05-09T00:03:37.879Z,25
2024-05-09T00:04:37.869Z,24
2024-05-09T00:05:38.137Z,26
2024-05-09T00:06:37.925Z,26
2024-05-09T00:07:39.167Z,25
2024-05-09T00:08:37.909Z,26
2024-05-09T00:09:37.871Z,24
2024-05-09T00:10:39.287Z,23
2024-05-09T00:11:37.923Z,27
2024-05-09T00:12:37.970Z,23
2024-05-09T00:13:37.850Z,25
2024-05-09T00:14:37.995Z,23
2024-05-09T00:15:37.870Z,25
2024-05-09T00:16:37.873Z,24
2024-05-09T00:17:38.082Z,23
2024-05-09T00:18:37.958Z,23
2024-05-09T00:19:37.886Z,23
2024-05-09T00:20:40.728Z,20
2024-05-09T00:21:37.920Z,22
2024-05-09T00:23:37.934Z,23
2024-05-09T00:24:37.863Z,25
2024-05-09T00:25:37.858Z,23
2024-05-09T00:26:37.924Z,25
2024-05-09T00:27:37.865Z,23
2024-05-09T00:28:37.868Z,23
2024-05-09T00:29:37.919Z,25
2024-05-09T00:30:37.942Z,23
2024-05-09T00:31:37.877Z,23
2024-05-09T00:32:38.145Z,24
2024-05-09T00:33:38.088Z,25
2024-05-09T00:34:37.894Z,23
2024-05-09T00:35:38.541Z,25
2024-05-09T00:36:37.855Z,25
2024-05-09T00:37:37.871Z,25
2024-05-09T00:38:38.070Z,24
2024-05-09T00:39:37.915Z,24
2024-05-09T00:40:40.836Z,26
2024-05-09T00:41:37.899Z,23
2024-05-09T00:42:37.847Z,23
2024-05-09T00:43:37.846Z,23
2024-05-09T00:44:38.033Z,24
2024-05-09T00:45:37.872Z,26
2024-05-09T00:47:37.974Z,20
2024-05-09T00:48:38.021Z,23
2024-05-09T00:49:38.124Z,21
2024-05-09T00:50:42.469Z,22
2024-05-09T00:51:37.846Z,20
2024-05-09T00:52:37.957Z,22
2024-05-09T00:53:38.030Z,20
2024-05-09T00:54:38.107Z,22
2024-05-09T00:55:37.887Z,21
2024-05-09T00:56:37.934Z,22
2024-05-09T00:57:37.856Z,24
2024-05-09T00:58:37.866Z,21
2024-05-09T00:59:38.048Z,23
2024-05-09T01:00:40.326Z,19
2024-05-09T01:01:37.988Z,22
2024-05-09T01:02:37.939Z,22
2024-05-09T01:03:45.250Z,25
2024-05-09T01:04:38.210Z,23
2024-05-09T01:05:37.883Z,23
2024-05-09T01:06:37.868Z,21
2024-05-09T01:07:37.852Z,22
2024-05-09T01:08:37.912Z,20
2024-05-09T01:10:37.913Z,19
2024-05-09T01:11:38.049Z,20
2024-05-09T01:12:37.956Z,23
2024-05-09T01:13:37.876Z,24
2024-05-09T01:14:37.911Z,24
2024-05-09T01:15:39.293Z,21
2024-05-09T01:16:37.870Z,22
2024-05-09T01:17:38.088Z,22
2024-05-09T01:18:38.137Z,25
2024-05-09T01:19:37.929Z,21
2024-05-09T01:20:42.284Z,22
2024-05-09T01:21:37.869Z,26
2024-05-09T01:22:37.890Z,24
2024-05-09T01:23:37.978Z,24
2024-05-09T01:24:37.857Z,27
2024-05-09T01:25:37.988Z,26
2024-05-09T01:26:37.938Z,26
2024-05-09T01:27:37.879Z,25
2024-05-09T01:28:45.432Z,24
2024-05-09T01:29:37.900Z,24
2024-05-09T01:30:38.571Z,25
2024-05-09T01:31:37.915Z,25
2024-05-09T01:32:37.979Z,25
2024-05-09T01:33:38.344Z,27
2024-05-09T01:34:37.938Z,26
2024-05-09T01:35:38.005Z,24
2024-05-09T01:36:37.858Z,25
2024-05-09T01:37:37.931Z,26
2024-05-09T01:38:38.278Z,25
2024-05-09T01:39:37.858Z,24
2024-05-09T01:40:40.045Z,24
2024-05-09T01:41:37.897Z,26
2024-05-09T01:42:37.881Z,25
2024-05-09T01:43:37.898Z,26
2024-05-09T01:44:38.018Z,27
2024-05-09T01:45:37.876Z,26
2024-05-09T01:46:37.885Z,25
2024-05-09T01:47:38.092Z,27
2024-05-09T01:48:37.929Z,27
2024-05-09T01:49:37.943Z,27
2024-05-09T01:50:41.280Z,29
2024-05-09T01:51:37.882Z,24
2024-05-09T01:52:37.876Z,28
2024-05-09T01:53:37.896Z,25
2024-05-09T01:54:37.866Z,25
2024-05-09T01:55:37.906Z,26
2024-05-09T01:56:37.935Z,27
2024-05-09T01:57:37.862Z,28
2024-05-09T01:58:37.870Z,25
2024-05-09T01:59:37.870Z,27
2024-05-09T02:00:41.376Z,26
2024-05-09T02:01:55.737Z,28
2024-05-09T02:02:37.942Z,25
2024-05-09T02:03:38.004Z,27
2024-05-09T02:04:37.966Z,23
2024-05-09T02:05:38.070Z,27
2024-05-09T02:06:37.854Z,26
2024-05-09T02:07:37.882Z,26
2024-05-09T02:08:37.974Z,25
2024-05-09T02:09:44.251Z,25
2024-05-09T02:10:37.862Z,27
2024-05-09T02:11:37.980Z,24
2024-05-09T02:12:37.866Z,24
2024-05-09T02:13:37.880Z,25
2024-05-09T02:14:37.964Z,27
2024-05-09T02:15:38.023Z,28
2024-05-09T02:16:37.874Z,26
2024-05-09T02:17:38.058Z,27
2024-05-09T02:18:37.970Z,28
2024-05-09T02:19:37.952Z,28
2024-05-09T02:20:37.938Z,28
2024-05-09T02:21:37.853Z,27
2024-05-09T02:22:37.864Z,24
2024-05-09T02:23:37.999Z,28
2024-05-09T02:24:37.879Z,30
2024-05-09T02:25:37.878Z,25
2024-05-09T02:26:37.904Z,26
2024-05-09T02:27:37.864Z,24
2024-05-09T02:28:37.877Z,24
2024-05-09T02:29:38.020Z,24
2024-05-09T02:30:40.966Z,25
2024-05-09T02:31:37.879Z,22
2024-05-09T02:32:38.127Z,25
2024-05-09T02:33:38.189Z,23
2024-05-09T02:34:37.909Z,24
2024-05-09T02:35:37.943Z,25
2024-05-09T02:36:37.928Z,23
2024-05-09T02:37:37.862Z,24
2024-05-09T02:38:37.964Z,22
2024-05-09T02:39:37.868Z,23
2024-05-09T02:40:39.575Z,25
2024-05-09T02:41:37.943Z,23
2024-05-09T02:43:37.877Z,23
2024-05-09T02:44:37.932Z,22
2024-05-09T02:45:37.895Z,23
2024-05-09T02:46:37.863Z,22
2024-05-09T02:47:38.033Z,22
2024-05-09T02:48:38.168Z,22
2024-05-09T02:49:37.933Z,22
2024-05-09T02:50:39.834Z,21
2024-05-09T02:51:37.871Z,22
2024-05-09T02:52:37.873Z,25
2024-05-09T02:54:37.857Z,23
2024-05-09T02:55:37.963Z,24
2024-05-09T02:56:37.930Z,23
2024-05-09T02:57:37.883Z,25
2024-05-09T02:58:38.004Z,23
2024-05-09T02:59:37.891Z,23
2024-05-09T03:00:40.957Z,21
2024-05-09T03:01:38.024Z,25
2024-05-09T03:02:37.962Z,24
2024-05-09T03:03:38.137Z,23
2024-05-09T03:04:37.939Z,20
2024-05-09T03:05:38.024Z,24
2024-05-09T03:06:37.869Z,21
2024-05-09T03:07:37.874Z,25
2024-05-09T03:08:37.921Z,23
2024-05-09T03:09:37.858Z,25
2024-05-09T03:10:39.193Z,24
2024-05-09T03:11:41.272Z,23
2024-05-09T03:12:39.383Z,22
2024-05-09T03:13:37.878Z,23
2024-05-09T03:14:37.918Z,23
2024-05-09T03:15:37.904Z,23
2024-05-09T03:16:37.893Z,23
2024-05-09T03:17:37.990Z,24
2024-05-09T03:18:37.934Z,24
2024-05-09T03:19:38.014Z,26
2024-05-09T03:20:38.277Z,22
2024-05-09T03:21:37.884Z,23
2024-05-09T03:22:37.879Z,23
2024-05-09T03:23:37.881Z,25
2024-05-09T03:24:37.881Z,27
2024-05-09T03:25:37.940Z,25
2024-05-09T03:26:37.938Z,25
2024-05-09T03:27:37.872Z,26
2024-05-09T03:28:37.884Z,27
2024-05-09T03:29:37.923Z,26
2024-05-09T03:30:41.990Z,26
2024-05-09T03:32:37.985Z,24
2024-05-09T03:33:38.178Z,26
2024-05-09T03:34:37.885Z,25
2024-05-09T03:35:38.002Z,28
2024-05-09T03:36:37.871Z,28
2024-05-09T03:37:37.868Z,25
2024-05-09T03:38:37.985Z,25
2024-05-09T03:39:37.879Z,24
2024-05-09T03:40:37.933Z,26
2024-05-09T03:41:37.914Z,28
2024-05-09T03:42:37.894Z,25
2024-05-09T03:43:37.893Z,29
2024-05-09T03:44:38.055Z,27
2024-05-09T03:45:37.900Z,27
2024-05-09T03:46:37.884Z,28
2024-05-09T03:47:38.113Z,37
2024-05-09T03:48:38.004Z,25
2024-05-09T03:49:38.030Z,27
2024-05-09T03:50:38.307Z,28
2024-05-09T03:51:37.890Z,25
2024-05-09T03:52:37.874Z,27
2024-05-09T03:53:37.897Z,25
2024-05-09T03:54:38.194Z,26
2024-05-09T03:55:37.890Z,25
2024-05-09T03:56:37.966Z,27
2024-05-09T03:57:37.878Z,26
2024-05-09T03:58:37.885Z,25
2024-05-09T03:59:38.174Z,31
2024-05-09T04:00:39.645Z,26
2024-05-09T04:01:37.960Z,26
2024-05-09T04:02:37.982Z,26
2024-05-09T04:03:38.077Z,27
2024-05-09T04:04:38.377Z,27
2024-05-09T04:05:38.323Z,27
2024-05-09T04:06:37.897Z,28
2024-05-09T04:07:37.884Z,26
2024-05-09T04:08:37.926Z,29
2024-05-09T04:09:38.305Z,28
2024-05-09T04:10:38.045Z,27
2024-05-09T04:11:37.962Z,29
2024-05-09T04:12:38.013Z,28
2024-05-09T04:13:37.871Z,29
2024-05-09T04:15:37.875Z,29
2024-05-09T04:16:37.896Z,25
2024-05-09T04:17:38.080Z,26
2024-05-09T04:18:37.971Z,32
2024-05-09T04:19:37.963Z,26
2024-05-09T04:20:40.400Z,32
2024-05-09T04:21:37.910Z,28
2024-05-09T04:22:37.893Z,31
2024-05-09T04:23:38.012Z,35
2024-05-09T04:24:38.424Z,28
2024-05-09T04:25:38.070Z,27
2024-05-09T04:26:37.945Z,28
2024-05-09T04:27:37.890Z,28
2024-05-09T04:28:37.884Z,29
2024-05-09T04:29:37.964Z,30
2024-05-09T04:30:40.686Z,30
2024-05-09T04:31:37.915Z,31
2024-05-09T04:32:38.019Z,28
2024-05-09T04:33:38.007Z,31
2024-05-09T04:34:37.892Z,30
2024-05-09T04:35:38.018Z,29
2024-05-09T04:36:39.660Z,31
2024-05-09T04:37:37.881Z,29
2024-05-09T04:38:37.987Z,27
2024-05-09T04:39:37.881Z,31
2024-05-09T04:40:38.461Z,31
2024-05-09T04:41:37.927Z,29
2024-05-09T04:42:37.912Z,29
2024-05-09T04:44:37.930Z,30
2024-05-09T04:45:37.967Z,31
2024-05-09T04:46:37.887Z,30
2024-05-09T04:47:38.139Z,31
2024-05-09T04:49:38.004Z,30
2024-05-09T04:50:39.460Z,32
2024-05-09T04:51:38.057Z,36
2024-05-09T04:52:37.878Z,30
2024-05-09T04:53:37.964Z,29
2024-05-09T04:55:37.906Z,35
2024-05-09T04:56:37.903Z,31
2024-05-09T04:57:37.879Z,36
2024-05-09T04:58:37.882Z,40
2024-05-09T05:00:39.088Z,35
2024-05-09T05:01:37.916Z,37
2024-05-09T05:02:37.976Z,36
2024-05-09T05:03:38.105Z,34
2024-05-09T05:04:37.916Z,37
2024-05-09T05:05:38.126Z,38
2024-05-09T05:06:37.870Z,35
2024-05-09T05:07:37.951Z,39
2024-05-09T05:08:37.963Z,35
2024-05-09T05:09:37.872Z,38
2024-05-09T05:10:37.895Z,37
2024-05-09T05:11:37.967Z,35
2024-05-09T05:12:39.018Z,38
2024-05-09T05:13:40.118Z,38
2024-05-09T05:14:37.904Z,36
2024-05-09T05:15:37.866Z,39
2024-05-09T05:16:37.876Z,35
2024-05-09T05:17:38.187Z,34
2024-05-09T05:18:45.785Z,43
2024-05-09T05:19:37.956Z,34
2024-05-09T05:20:37.951Z,38
2024-05-09T05:21:37.881Z,39
2024-05-09T05:22:37.890Z,33
2024-05-09T05:24:37.944Z,35
2024-05-09T05:25:37.884Z,33
2024-05-09T05:26:37.974Z,37
2024-05-09T05:27:52.035Z,36
2024-05-09T05:28:37.866Z,38
2024-05-09T05:29:39.777Z,37
2024-05-09T05:30:38.016Z,41
2024-05-09T05:31:37.910Z,40
2024-05-09T05:32:38.111Z,38
2024-05-09T05:33:38.118Z,34
2024-05-09T05:34:37.878Z,41
2024-05-09T05:35:37.935Z,38
2024-05-09T05:36:37.887Z,38
2024-05-09T05:37:37.893Z,38
2024-05-09T05:38:38.005Z,37
2024-05-09T05:39:37.866Z,35
2024-05-09T05:40:39.085Z,36
2024-05-09T05:41:37.946Z,35
2024-05-09T05:43:37.906Z,37
2024-05-09T05:44:37.972Z,36
2024-05-09T05:45:38.473Z,37
2024-05-09T05:46:37.919Z,36
2024-05-09T05:47:38.028Z,37
2024-05-09T05:48:38.042Z,38
2024-05-09T05:49:38.153Z,38
2024-05-09T05:50:38.760Z,37
2024-05-09T05:51:37.893Z,36
2024-05-09T05:52:37.908Z,39
2024-05-09T05:53:37.973Z,38
2024-05-09T05:54:37.908Z,40
2024-05-09T05:55:37.982Z,37
2024-05-09T05:56:37.934Z,39
2024-05-09T05:57:37.914Z,38
2024-05-09T05:58:37.905Z,39
2024-05-09T05:59:37.968Z,39
2024-05-09T06:00:39.952Z,36
2024-05-09T06:01:37.973Z,38
2024-05-09T06:02:38.047Z,37
2024-05-09T06:03:38.054Z,39
2024-05-09T06:04:37.902Z,37
2024-05-09T06:05:37.929Z,33
2024-05-09T06:06:37.889Z,34
2024-05-09T06:07:38.548Z,37
2024-05-09T06:08:37.923Z,36
2024-05-09T06:09:37.912Z,36
2024-05-09T06:10:40.247Z,33
2024-05-09T06:11:37.962Z,35
2024-05-09T06:12:37.894Z,36
2024-05-09T06:13:37.888Z,34
2024-05-09T06:14:37.946Z,33
2024-05-09T06:15:37.929Z,32
2024-05-09T06:16:37.904Z,33
2024-05-09T06:17:38.004Z,35
2024-05-09T06:18:38.094Z,38
2024-05-09T06:20:38.576Z,35
2024-05-09T06:21:37.887Z,39
2024-05-09T06:22:37.881Z,36
2024-05-09T06:23:38.129Z,40
2024-05-09T06:24:37.873Z,38
2024-05-09T06:25:38.028Z,40
2024-05-09T06:26:37.973Z,38
2024-05-09T06:27:37.907Z,38
2024-05-09T06:28:37.895Z,41
2024-05-09T06:29:37.934Z,41
2024-05-09T06:30:40.441Z,39
2024-05-09T06:31:37.917Z,40
2024-05-09T06:32:38.054Z,39
2024-05-09T06:33:38.066Z,39
2024-05-09T06:34:37.998Z,37
2024-05-09T06:35:38.157Z,41
2024-05-09T06:36:37.885Z,40
2024-05-09T06:37:37.916Z,38
2024-05-09T06:38:38.222Z,40
2024-05-09T06:39:37.906Z,39
2024-05-09T06:40:39.984Z,39
2024-05-09T06:41:37.936Z,38
2024-05-09T06:42:37.900Z,40
2024-05-09T06:43:37.930Z,40
2024-05-09T06:44:37.946Z,41
2024-05-09T06:45:37.900Z,40
2024-05-09T06:46:37.924Z,39
2024-05-09T06:47:38.162Z,40
2024-05-09T06:48:38.020Z,41
2024-05-09T06:49:38.097Z,43
2024-05-09T06:50:39.418Z,44
2024-05-09T06:51:37.891Z,42
2024-05-09T06:52:37.911Z,41
2024-05-09T06:53:38.101Z,36
2024-05-09T06:54:37.935Z,40
2024-05-09T06:55:38.258Z,46
2024-05-09T06:56:37.926Z,39
2024-05-09T06:57:40.536Z,39
2024-05-09T06:58:43.144Z,41
2024-05-09T06:59:37.964Z,42
2024-05-09T07:00:40.561Z,42
2024-05-09T07:01:37.972Z,41
2024-05-09T07:02:38.119Z,43
2024-05-09T07:03:37.980Z,37
2024-05-09T07:05:37.980Z,40
2024-05-09T07:06:37.896Z,36
2024-05-09T07:07:37.934Z,40
2024-05-09T07:08:38.051Z,40
2024-05-09T07:09:37.904Z,50
2024-05-09T07:10:38.397Z,51
2024-05-09T07:11:38.052Z,51
2024-05-09T07:12:37.996Z,54
2024-05-09T07:13:37.954Z,57
2024-05-09T07:14:38.628Z,62
2024-05-09T07:15:37.940Z,68
2024-05-09T07:16:37.912Z,64
2024-05-09T07:17:38.049Z,51
2024-05-09T07:18:38.103Z,45
2024-05-09T07:19:38.017Z,48
2024-05-09T07:20:38.008Z,44
2024-05-09T07:21:37.904Z,45
2024-05-09T07:22:37.967Z,40
2024-05-09T07:23:37.964Z,40
2024-05-09T07:24:37.922Z,41
2024-05-09T07:25:37.892Z,40
2024-05-09T07:26:38.027Z,42
2024-05-09T07:27:37.901Z,41
2024-05-09T07:28:37.951Z,40
2024-05-09T07:29:38.785Z,43
2024-05-09T07:30:38.033Z,39
2024-05-09T07:31:37.915Z,46
2024-05-09T07:32:38.112Z,41
2024-05-09T07:33:38.008Z,40
2024-05-09T07:34:38.010Z,46
2024-05-09T07:35:37.990Z,65
2024-05-09T07:36:37.899Z,63
2024-05-09T07:37:37.910Z,60
2024-05-09T07:38:40.920Z,56
2024-05-09T07:40:37.887Z,53
2024-05-09T07:41:37.947Z,64
2024-05-09T07:42:37.917Z,85
2024-05-09T07:44:37.959Z,72
2024-05-09T07:45:48.475Z,49
2024-05-09T07:47:47.288Z,45
2024-05-09T07:48:58.033Z,39
2024-05-09T07:53:14.257Z,44
2024-05-09T07:53:33.654Z,38
2024-05-09T07:53:43.411Z,43
2024-05-09T07:54:42.984Z,43
2024-05-09T07:56:38.439Z,46
2024-05-09T07:57:37.923Z,55
2024-05-09T07:58:37.914Z,46
2024-05-09T07:59:38.193Z,40
2024-05-09T08:00:38.028Z,41
2024-05-09T08:01:38.062Z,41
2024-05-09T08:02:37.981Z,43
2024-05-09T08:03:38.208Z,42
2024-05-09T08:04:38.027Z,44
2024-05-09T08:05:37.987Z,46
2024-05-09T08:06:37.935Z,45
2024-05-09T08:07:37.925Z,44
2024-05-09T08:08:37.927Z,42
2024-05-09T08:09:38.695Z,45
2024-05-09T08:10:37.946Z,46
2024-05-09T08:11:37.991Z,45
2024-05-09T08:12:38.021Z,42
2024-05-09T08:13:37.930Z,42
2024-05-09T08:14:37.908Z,41
2024-05-09T08:15:37.990Z,40
2024-05-09T08:16:37.944Z,39
2024-05-09T08:17:38.020Z,39
2024-05-09T08:18:38.074Z,42
2024-05-09T08:19:37.995Z,42
2024-05-09T08:20:37.908Z,44
2024-05-09T08:21:37.941Z,44
2024-05-09T08:22:37.902Z,40
2024-05-09T08:23:37.976Z,36
2024-05-09T08:24:37.957Z,39
2024-05-09T08:25:37.922Z,39
2024-05-09T08:26:37.898Z,39
2024-05-09T08:27:37.985Z,38
2024-05-09T08:28:38.408Z,42
2024-05-09T08:29:37.914Z,43
2024-05-09T08:30:38.506Z,38
2024-05-09T08:31:38.010Z,38
2024-05-09T08:32:38.007Z,38
2024-05-09T08:33:38.089Z,40
2024-05-09T08:34:37.972Z,38
2024-05-09T08:35:37.941Z,43
2024-05-09T08:37:40.065Z,36
2024-05-09T08:38:38.021Z,35
2024-05-09T08:40:38.442Z,46
2024-05-09T08:41:37.924Z,41
2024-05-09T08:42:37.935Z,41
2024-05-09T08:43:41.511Z,35
2024-05-09T08:44:37.946Z,38
2024-05-09T08:45:37.958Z,36
2024-05-09T08:46:37.932Z,34
2024-05-09T08:47:37.999Z,39
2024-05-09T08:48:38.171Z,55
2024-05-09T08:49:40.783Z,51
2024-05-09T08:50:39.633Z,37
2024-05-09T08:51:37.944Z,38
2024-05-09T08:52:37.925Z,35
2024-05-09T08:53:37.915Z,37
2024-05-09T08:54:37.934Z,37
2024-05-09T08:55:43.442Z,35
2024-05-09T08:57:38.099Z,36
2024-05-09T08:58:53.252Z,31
2024-05-09T08:59:37.905Z,30
2024-05-09T09:00:38.080Z,33
2024-05-09T09:01:39.302Z,32
2024-05-09T09:02:38.033Z,34
2024-05-09T09:03:38.140Z,32
2024-05-09T09:04:38.106Z,28
2024-05-09T09:05:38.118Z,33
2024-05-09T09:06:37.932Z,43
2024-05-09T09:07:37.923Z,37
2024-05-09T09:08:37.903Z,35
2024-05-09T09:09:37.950Z,29
2024-05-09T09:10:38.081Z,28
2024-05-09T09:11:37.931Z,27
2024-05-09T09:12:37.951Z,26
2024-05-09T09:13:37.916Z,25
2024-05-09T09:14:37.907Z,29
2024-05-09T09:15:37.943Z,35
2024-05-09T09:16:37.948Z,46
2024-05-09T09:17:38.004Z,39
2024-05-09T09:18:38.263Z,32
2024-05-09T09:19:37.971Z,29
2024-05-09T09:20:37.988Z,26
2024-05-09T09:22:07.329Z,25
2024-05-09T09:22:44.435Z,25
2024-05-09T09:24:42.268Z,25
2024-05-09T09:25:37.917Z,25
2024-05-09T09:26:37.912Z,23
2024-05-09T09:27:37.989Z,25
2024-05-09T09:28:39.600Z,22
2024-05-09T09:29:37.894Z,21
2024-05-09T09:30:38.314Z,24
2024-05-09T09:31:37.988Z,20
2024-05-09T09:32:38.025Z,20
2024-05-09T09:33:38.140Z,20
2024-05-09T09:34:37.970Z,21
2024-05-09T09:35:37.935Z,24
2024-05-09T09:36:37.911Z,19
2024-05-09T09:37:37.935Z,19
2024-05-09T09:38:38.032Z,18
2024-05-09T09:39:37.946Z,16
2024-05-09T09:40:42.814Z,16
2024-05-09T09:41:38.253Z,15
2024-05-09T09:42:52.333Z,16
2024-05-09T09:44:42.039Z,14
2024-05-09T09:45:37.978Z,17
2024-05-09T09:46:38.002Z,15
2024-05-09T09:47:38.358Z,13
2024-05-09T09:48:38.036Z,14
2024-05-09T09:49:37.992Z,12
2024-05-09T09:50:37.910Z,13
2024-05-09T09:52:37.919Z,11
2024-05-09T09:53:37.960Z,12
2024-05-09T09:54:37.999Z,11
2024-05-09T09:56:37.923Z,10
2024-05-09T09:57:37.982Z,12
2024-05-09T09:58:38.036Z,9
2024-05-09T09:59:37.930Z,8
2024-05-09T10:00:38.143Z,8
2024-05-09T10:01:38.070Z,8
2024-05-09T10:02:37.970Z,8
2024-05-09T10:03:38.094Z,7
2024-05-09T10:04:38.056Z,7
2024-05-09T10:05:39.810Z,6
2024-05-09T10:06:37.929Z,6
2024-05-09T10:07:37.930Z,5
2024-05-09T10:08:37.924Z,6
2024-05-09T10:09:38.020Z,6
2024-05-09T10:10:38.046Z,5
2024-05-09T10:11:45.149Z,4
2024-05-09T10:12:37.963Z,3
2024-05-09T10:13:37.916Z,5
2024-05-09T10:14:37.928Z,4
2024-05-09T10:15:37.993Z,8
2024-05-09T10:16:37.941Z,5
2024-05-09T10:17:38.071Z,6
2024-05-09T10:19:37.961Z,5
2024-05-09T10:20:37.929Z,4
2024-05-09T10:21:38.004Z,5
2024-05-09T10:22:37.920Z,5
2024-05-09T10:23:37.914Z,6
2024-05-09T10:24:37.964Z,4
2024-05-09T10:25:41.107Z,4
2024-05-09T10:27:37.943Z,4
2024-05-09T10:28:39.214Z,4
2024-05-09T10:29:37.915Z,4
2024-05-09T10:30:38.544Z,4
2024-05-09T10:31:48.138Z,3
2024-05-09T10:32:37.976Z,5
2024-05-09T10:33:38.151Z,4
2024-05-09T10:34:38.013Z,4
2024-05-09T10:35:37.943Z,4
2024-05-09T10:36:41.457Z,5
2024-05-09T10:37:37.927Z,5
2024-05-09T10:38:37.938Z,4
2024-05-09T10:39:37.957Z,4
2024-05-09T10:40:37.964Z,5
2024-05-09T10:41:37.936Z,4
2024-05-09T10:42:37.945Z,3
2024-05-09T10:43:37.919Z,3
2024-05-09T10:44:37.954Z,3
2024-05-09T10:45:37.976Z,4
2024-05-09T10:46:37.957Z,3
2024-05-09T10:47:37.955Z,4
2024-05-09T10:48:38.071Z,4
2024-05-09T10:49:37.996Z,7
2024-05-09T10:50:37.927Z,3
2024-05-09T10:51:37.975Z,4
2024-05-09T10:52:37.919Z,4
2024-05-09T10:53:37.933Z,5
2024-05-09T10:54:37.968Z,3
2024-05-09T10:55:37.946Z,3
2024-05-09T10:56:37.940Z,3
2024-05-09T10:57:38.093Z,4
2024-05-09T10:58:37.958Z,5
2024-05-09T10:59:37.937Z,4
2024-05-09T11:00:38.143Z,5
2024-05-09T11:01:38.050Z,4
2024-05-09T11:02:38.037Z,3
2024-05-09T11:03:38.874Z,5
2024-05-09T11:04:38.024Z,6
2024-05-09T11:05:38.078Z,3
2024-05-09T11:06:37.961Z,4
2024-05-09T11:07:37.947Z,3
2024-05-09T11:08:37.931Z,3
2024-05-09T11:09:37.959Z,3
2024-05-09T11:10:37.979Z,5
2024-05-09T11:11:37.961Z,3
2024-05-09T11:12:37.990Z,3
2024-05-09T11:13:38.035Z,4
2024-05-09T11:14:37.932Z,4
2024-05-09T11:15:37.963Z,5
2024-05-09T11:16:37.945Z,4
2024-05-09T11:17:38.097Z,6
2024-05-09T11:18:39.243Z,4
2024-05-09T11:19:37.993Z,4
2024-05-09T11:20:38.148Z,3
2024-05-09T11:21:38.005Z,4
2024-05-09T11:22:37.975Z,4
2024-05-09T11:23:37.944Z,6
2024-05-09T11:24:37.971Z,6
2024-05-09T11:25:37.955Z,4
2024-05-09T11:26:37.964Z,3
2024-05-09T11:27:38.063Z,4
2024-05-09T11:28:37.952Z,4
2024-05-09T11:29:37.937Z,4
2024-05-09T11:30:38.029Z,5
2024-05-09T11:31:38.032Z,5
2024-05-09T11:32:38.153Z,5
2024-05-09T11:33:38.307Z,6
2024-05-09T11:34:38.051Z,6
2024-05-09T11:35:45.777Z,5
2024-05-09T11:36:37.980Z,5
2024-05-09T11:37:37.948Z,5
2024-05-09T11:38:37.956Z,6
2024-05-09T11:39:37.994Z,5
2024-05-09T11:40:38.001Z,4
2024-05-09T11:41:37.965Z,4
2024-05-09T11:42:37.983Z,4
2024-05-09T11:43:37.967Z,4
2024-05-09T11:44:44.468Z,3
2024-05-09T11:45:37.997Z,4
2024-05-09T11:46:37.967Z,3
2024-05-09T11:47:38.091Z,4
2024-05-09T11:48:38.226Z,5
2024-05-09T11:49:38.009Z,5
2024-05-09T11:50:39.503Z,5
2024-05-09T11:51:38.107Z,4
2024-05-09T11:52:37.945Z,4
2024-05-09T11:53:37.968Z,4
2024-05-09T11:54:38.023Z,5
2024-05-09T11:55:37.941Z,6
2024-05-09T11:56:37.961Z,4
2024-05-09T11:57:38.028Z,5
2024-05-09T11:58:37.949Z,4
2024-05-09T11:59:42.184Z,6
2024-05-09T12:00:38.210Z,5
2024-05-09T12:01:38.101Z,5
2024-05-09T12:02:38.073Z,6
2024-05-09T12:03:38.248Z,5
2024-05-09T12:04:38.151Z,5
2024-05-09T12:05:38.104Z,5
2024-05-09T12:06:38.047Z,7
2024-05-09T12:07:37.960Z,4
2024-05-09T12:08:37.972Z,5
2024-05-09T12:09:37.983Z,6
2024-05-09T12:10:38.185Z,4
2024-05-09T12:11:38.006Z,4
2024-05-09T12:12:38.010Z,5
2024-05-09T12:13:37.971Z,6
2024-05-09T12:14:37.981Z,4
2024-05-09T12:15:38.892Z,4
2024-05-09T12:16:38.029Z,4
2024-05-09T12:17:38.120Z,5
2024-05-09T12:18:38.148Z,4
2024-05-09T12:19:38.037Z,6
2024-05-09T12:20:39.904Z,4
2024-05-09T12:21:37.999Z,4
2024-05-09T12:22:37.992Z,4
2024-05-09T12:23:37.965Z,6
2024-05-09T12:24:37.971Z,6
2024-05-09T12:26:37.965Z,5
2024-05-09T12:27:38.036Z,3
2024-05-09T12:28:37.988Z,4
2024-05-09T12:29:38.909Z,4
2024-05-09T12:30:40.409Z,5
2024-05-09T12:31:38.043Z,5
2024-05-09T12:32:38.165Z,5
2024-05-09T12:33:38.087Z,5
2024-05-09T12:34:38.031Z,5
2024-05-09T12:35:37.996Z,6
2024-05-09T12:36:38.065Z,5
2024-05-09T12:37:37.977Z,5
2024-05-09T12:38:37.979Z,4
2024-05-09T12:40:39.164Z,5
2024-05-09T12:41:37.973Z,3
2024-05-09T12:42:38.034Z,5
2024-05-09T12:43:38.032Z,3
2024-05-09T12:44:37.975Z,4
2024-05-09T12:45:38.382Z,4
2024-05-09T12:46:38.088Z,4
2024-05-09T12:47:38.051Z,3
2024-05-09T12:48:38.175Z,5
2024-05-09T12:49:38.052Z,3
2024-05-09T12:50:38.144Z,3
2024-05-09T12:51:38.122Z,3
2024-05-09T12:52:37.976Z,4
2024-05-09T12:53:37.976Z,4
2024-05-09T12:54:38.038Z,3
2024-05-09T12:55:44.781Z,4
2024-05-09T12:56:37.999Z,4
2024-05-09T12:57:38.037Z,6
2024-05-09T12:58:37.989Z,5
2024-05-09T12:59:37.981Z,5
2024-05-09T13:00:38.071Z,5
2024-05-09T13:01:38.108Z,3
2024-05-09T13:02:38.149Z,4
2024-05-09T13:03:38.167Z,5
2024-05-09T13:04:46.370Z,7
2024-05-09T13:05:38.090Z,5
2024-05-09T13:06:38.044Z,4
2024-05-09T13:07:37.981Z,4
2024-05-09T13:08:37.979Z,3
2024-05-09T13:09:38.068Z,5
2024-05-09T13:10:37.999Z,6
2024-05-09T13:11:38.021Z,5
2024-05-09T13:12:38.004Z,4
2024-05-09T13:13:37.975Z,7
2024-05-09T13:14:37.978Z,5
2024-05-09T13:15:38.056Z,4
2024-05-09T13:16:38.020Z,4
2024-05-09T13:17:38.087Z,7
2024-05-09T13:18:38.081Z,5
2024-05-09T13:19:37.975Z,5
2024-05-09T13:20:37.979Z,5
2024-05-09T13:21:38.022Z,5
2024-05-09T13:22:37.992Z,5
2024-05-09T13:23:38.022Z,6
2024-05-09T13:24:39.183Z,5
2024-05-09T13:25:43.316Z,6
2024-05-09T13:26:37.987Z,6
2024-05-09T13:27:38.027Z,7
2024-05-09T13:28:37.985Z,7
2024-05-09T13:29:40.319Z,5
2024-05-09T13:30:41.055Z,4
2024-05-09T13:31:38.017Z,5
2024-05-09T13:32:38.138Z,4
2024-05-09T13:33:38.192Z,5
2024-05-09T13:34:38.017Z,5
2024-05-09T13:35:38.017Z,4
2024-05-09T13:36:37.984Z,5
2024-05-09T13:37:38.002Z,4
2024-05-09T13:39:38.004Z,5
2024-05-09T13:40:38.110Z,3
2024-05-09T13:41:38.008Z,3
2024-05-09T13:42:37.994Z,4
2024-05-09T13:43:38.026Z,3
2024-05-09T13:44:37.989Z,4
2024-05-09T13:45:38.056Z,4
2024-05-09T13:46:38.041Z,4
2024-05-09T13:47:38.088Z,4
2024-05-09T13:48:38.179Z,5
2024-05-09T13:49:38.037Z,4
2024-05-09T13:50:38.006Z,4
2024-05-09T13:51:38.053Z,5
2024-05-09T13:52:38.013Z,3
2024-05-09T13:53:38.064Z,3
2024-05-09T13:54:38.069Z,4
2024-05-09T13:55:38.001Z,5
2024-05-09T13:56:38.003Z,4
2024-05-09T13:57:38.033Z,3
2024-05-09T13:58:37.993Z,4
2024-05-09T13:59:38.035Z,4
2024-05-09T14:00:44.818Z,4
2024-05-09T14:01:38.236Z,6
2024-05-09T14:02:38.122Z,3
2024-05-09T14:03:38.171Z,4
2024-05-09T14:04:38.209Z,3
2024-05-09T14:05:38.229Z,5
2024-05-09T14:06:41.143Z,4
2024-05-09T14:07:38.007Z,3
2024-05-09T14:08:37.994Z,5
2024-05-09T14:09:38.018Z,5
2024-05-09T14:10:38.142Z,4
2024-05-09T14:11:38.143Z,5
2024-05-09T14:12:38.030Z,3
2024-05-09T14:13:38.001Z,4
2024-05-09T14:14:38.006Z,3
2024-05-09T14:15:38.049Z,5
2024-05-09T14:16:38.146Z,5
2024-05-09T14:17:38.083Z,5
2024-05-09T14:18:38.075Z,4
2024-05-09T14:19:38.018Z,4
2024-05-09T14:20:38.010Z,5
2024-05-09T14:21:38.171Z,4
2024-05-09T14:22:37.995Z,5
2024-05-09T14:23:38.003Z,6
2024-05-09T14:24:38.076Z,5
2024-05-09T14:25:41.479Z,5
2024-05-09T14:26:38.003Z,4
2024-05-09T14:27:38.060Z,8
2024-05-09T14:28:38.005Z,5
2024-05-09T14:29:37.997Z,5
2024-05-09T14:30:39.073Z,4
2024-05-09T14:31:39.559Z,4
2024-05-09T14:32:38.103Z,4
2024-05-09T14:33:38.236Z,5
2024-05-09T14:34:38.088Z,4
2024-05-09T14:35:38.788Z,5
2024-05-09T14:36:38.038Z,4
2024-05-09T14:37:39.755Z,9
2024-05-09T14:38:38.033Z,8
2024-05-09T14:39:40.314Z,6
2024-05-09T14:40:42.899Z,6
2024-05-09T14:41:38.007Z,5
2024-05-09T14:42:38.038Z,5
2024-05-09T14:43:38.050Z,6
2024-05-09T14:44:38.007Z,7
2024-05-09T14:45:38.103Z,8
2024-05-09T14:46:38.019Z,8
2024-05-09T14:47:38.302Z,6
2024-05-09T14:48:51.953Z,6
2024-05-09T14:49:38.162Z,8
2024-05-09T14:50:39.890Z,7
2024-05-09T14:51:38.027Z,7
2024-05-09T14:52:38.025Z,5
2024-05-09T14:53:38.074Z,7
2024-05-09T14:54:38.048Z,6
2024-05-09T14:55:38.312Z,5
2024-05-09T14:56:38.028Z,6
2024-05-09T14:57:38.023Z,6
2024-05-09T14:58:38.014Z,6
2024-05-09T14:59:38.004Z,4